Search for airport 
image banner adimage banner adimage banner ad
image banner ad

5CA7 - Agro-West

Located in Five Points, United States

ICAO - 5CA7, IATA -

Data provided by Airmate  

General information

Coordinates: N36°20'10" W120°14'51"
Elevation is 335 feet MSL.
Magnetic variation is 15° East
View others Airports in California

Operational data

Special qualification required
Current time UTC:
Current local time:
Weather at : KNLC - Lemoore Nas (Reeves Fld) ( 26 km )
METAR: KNLC 240856Z AUTO 32010KT 10SM CLR 20/11 A2993 RMK AO2 SLP133 T02000111 51010
TAF: TAF KNLC 2407/2507 30006KT 9999 SKC QNH2988INS FM241500 32011KT 9999 SKC QNH2982INS FM250500 28008KT 9999 SKC QNH2985INS AUTOMATED SENSOR METWATCH 2407 TIL 2414 T15/2413Z T34/2423Z FS30173
View NOTAMs / SUP AIP / TFR affecting this airport [VIEW]
Communications frequencies: [VIEW]

Runways:

RWY identifierQFULength (ft)Width (ft)SurfaceLDA (ft)
16300040ASPH
34300040ASPH

Airport contact information

Address: Five Points United States

Satellite view of 5CA7